Latest Weather Observations for Perth Airport

IDW60801

Issued at 11:02 pm WST Wednesday 4 March 2015 (issued every 30 minutes, with the page automatically refreshed every 10 minutes)

About weather observations | Map of weather stations | Latest weather observations for WA | Other Formats
Station Details ID: 009021 Name: PERTH AIRPORT Lat: -31.93 Lon: 115.98 Height: 15.4 m
Data from the previous 72 hours. | See also: Recent months at Perth Airport
Date/Time
WST
Temp
°C
App
Temp
°C
Dew
Point
Rel
Hum
%
Delta-T
°C
Wind Press
QNH
hPa
Press
MSL
hPa
Rain
since 9 am
mm
Dir
 
Spd
km/h
Gust
km/h
Spd
kts
Gust
kts
04/11:00pm 25.3 19.2 9.8 37 8.5 E 32 41 17 22 1020.9 - 0.0
04/10:30pm 26.1 20.3 9.5 35 9.1 ESE 30 37 16 20 1020.7 - 0.0
04/10:00pm 26.4 21.4 7.9 31 9.9 ESE 24 33 13 18 1020.7 - 0.0
04/09:30pm 26.2 22.3 8.6 32 9.5 ESE 19 26 10 14 1020.6 - 0.0
04/09:00pm 26.4 23.0 9.2 33 9.4 ESE 17 26 9 14 1020.4 1020.3 0.0
04/08:30pm 26.2 22.9 9.4 34 9.2 ESE 17 19 9 10 1020.1 - 0.0
04/08:00pm 26.5 23.3 9.9 35 9.2 SE 17 22 9 12 1019.7 - 0.0
04/07:30pm 28.0 24.7 9.4 31 10.3 ESE 17 19 9 10 1019.3 - 0.0
04/07:00pm 29.1 25.5 8.2 27 11.4 ESE 17 24 9 13 1019.1 - 0.0
04/06:30pm 30.0 25.9 8.0 25 12.0 E 19 28 10 15 1018.9 - 0.0
04/06:00pm 30.9 25.9 7.9 23 12.6 E 24 33 13 18 1018.7 1018.6 0.0
04/05:30pm 31.4 27.2 8.2 23 12.8 E 20 32 11 17 1018.5 - 0.0
04/05:00pm 31.5 27.5 9.0 24 12.6 E 20 32 11 17 1018.4 - 0.0
04/04:30pm 32.1 27.3 8.9 23 13.0 ESE 24 33 13 18 1018.3 - 0.0
04/04:00pm 32.4 28.0 9.1 23 13.1 E 22 32 12 17 1018.2 - 0.0
04/03:30pm 32.1 27.7 8.9 23 13.0 ESE 22 33 12 18 1018.4 - 0.0
04/03:00pm 32.0 28.2 9.0 24 12.9 ESE 19 32 10 17 1018.5 1018.4 0.0
04/02:51pm 31.7 26.4 9.9 26 12.4 E 28 50 15 27 1018.6 - 0.0
04/02:30pm 31.0 26.1 10.0 27 11.9 ESE 26 35 14 19 1018.8 - 0.0
04/02:00pm 30.7 25.7 9.5 26 11.9 ESE 26 35 14 19 1019.1 - 0.0
04/01:30pm 31.2 26.3 10.1 27 12.0 E 26 35 14 19 1019.4 - 0.0
04/01:00pm 31.0 25.8 10.3 27 11.8 E 28 33 15 18 1019.7 - 0.0
04/12:30pm 30.7 27.2 10.8 29 11.4 E 20 32 11 17 1020.0 - 0.0
04/12:00pm 29.8 27.7 12.4 34 10.2 E 15 20 8 11 1020.5 1020.4 0.0
04/10:30am 26.5 23.6 12.9 43 7.9 ESE 20 28 11 15 1021.9 - 0.0
04/10:00am 25.4 21.8 13.0 46 7.2 E 24 35 13 19 1022.0 - 0.0
04/09:30am 23.7 19.3 12.9 50 6.2 E 28 33 15 18 1022.3 - 0.0
04/09:00am 22.4 19.5 12.9 55 5.4 E 20 33 11 18 1022.3 1022.2 0.0
04/08:30am 21.1 16.7 12.8 59 4.7 E 28 39 15 21 1022.1 - 0.0
04/08:00am 20.1 16.4 12.8 63 4.1 E 24 35 13 19 1022.2 - 0.0
04/07:30am 19.3 16.1 13.1 67 3.5 ENE 22 32 12 17 1021.8 - 0.0
04/07:00am 18.5 15.6 13.0 70 3.1 E 20 33 11 18 1021.7 - 0.0
04/06:30am 17.7 14.5 13.1 74 2.6 ENE 22 32 12 17 1021.4 - 0.0
04/06:00am 17.5 14.8 12.8 74 2.6 ENE 19 33 10 18 1020.8 1020.7 0.0
04/05:30am 17.7 15.7 12.7 72 2.8 ENE 15 26 8 14 1020.5 - 0.0
04/05:00am 17.9 15.5 12.7 71 2.9 E 17 28 9 15 1019.9 - 0.0
04/04:30am 18.3 17.1 12.7 70 3.1 E 11 20 6 11 1019.6 - 0.0
04/04:00am 18.8 16.8 12.7 67 3.4 E 15 20 8 11 1019.6 - 0.0
04/03:30am 19.1 16.7 12.7 66 3.6 ESE 17 30 9 16 1019.4 - 0.0
04/03:00am 19.4 17.4 12.8 65 3.7 E 15 26 8 14 1019.3 1019.2 0.0
04/02:30am 19.9 18.2 12.6 63 4.1 E 13 26 7 14 1019.3 - 0.0
04/02:00am 20.4 19.1 12.6 61 4.4 ESE 11 17 6 9 1019.3 - 0.0
04/01:30am 20.7 19.0 12.5 59 4.6 E 13 26 7 14 1019.3 - 0.0
04/01:00am 21.1 18.8 13.0 60 4.6 ESE 17 28 9 15 1019.3 - 0.0
04/12:30am 21.7 20.1 12.9 57 5.0 SE 13 22 7 12 1019.4 - 0.0
04/12:04am 22.2 17.4 12.9 55 5.3 E 30 48 16 26 1019.1 - 0.0
04/12:00am 22.2 16.8 12.9 55 5.3 E 33 48 18 26 1019.1 1019.0 0.0
 
Date/Time
WST
Temp
°C
App
Temp
°C
Dew
Point
Rel
Hum
%
Delta-T
°C
Wind Press
QNH
hPa
Press
MSL
hPa
Rain
since 9 am
mm
Dir
 
Spd
km/h
Gust
km/h
Spd
kts
Gust
kts
03/11:49pm 22.5 17.3 12.9 54 5.5 E 32 50 17 27 1019.1 - 0.0
03/11:30pm 23.0 18.5 12.7 52 5.9 ESE 28 39 15 21 1019.0 - 0.0
03/11:00pm 23.8 19.2 12.2 48 6.6 ESE 28 39 15 21 1019.0 - 0.0
03/10:30pm 24.7 19.1 11.4 43 7.5 ESE 32 39 17 21 1019.0 - 0.0
03/10:00pm 25.2 20.7 9.9 38 8.4 ESE 24 33 13 18 1018.8 - 0.0
03/09:30pm 26.1 20.5 8.8 33 9.4 E 28 35 15 19 1018.6 - 0.0
03/09:00pm 26.2 22.2 9.2 34 9.3 E 20 28 11 15 1018.4 1018.3 0.0
03/08:30pm 26.3 22.9 9.3 34 9.3 ESE 17 22 9 12 1018.0 - 0.0
03/08:00pm 26.7 23.6 10.2 35 9.2 ESE 17 24 9 13 1017.5 - 0.0
03/07:30pm 27.0 23.6 10.4 35 9.3 ESE 19 32 10 17 1017.1 - 0.0
03/07:00pm 27.9 24.5 10.5 33 9.8 ESE 19 30 10 16 1016.7 - 0.0
03/06:30pm 28.9 24.7 9.8 30 10.7 E 22 33 12 18 1016.4 - 0.0
03/06:00pm 29.8 26.5 9.7 28 11.3 E 17 28 9 15 1016.2 1016.1 0.0
03/05:30pm 29.5 27.9 10.2 30 10.9 SW 9 17 5 9 1016.2 - 0.0
03/05:00pm 29.4 27.0 13.7 38 9.4 WSW 19 26 10 14 1016.1 - 0.0
03/04:30pm 30.5 29.0 14.3 37 9.8 W 15 24 8 13 1016.2 - 0.0
03/04:00pm 28.7 27.4 13.8 40 8.9 SW 13 19 7 10 1016.4 - 0.0
03/03:30pm 30.2 27.5 11.6 31 10.8 SE 17 28 9 15 1016.4 - 0.0
03/03:00pm 30.3 27.2 10.2 28 11.4 SW 17 26 9 14 1016.6 1016.5 0.0
03/02:30pm 30.9 28.4 10.9 29 11.5 ESE 15 26 8 14 1016.9 - 0.0
03/02:00pm 29.7 26.7 11.8 33 10.4 SSE 19 32 10 17 1017.3 - 0.0
03/01:30pm 31.3 28.7 12.0 30 11.3 SE 17 32 9 17 1017.5 - 0.0
03/01:00pm 28.9 27.7 12.9 37 9.4 SE 11 22 6 12 1017.9 - 0.0
03/12:30pm 28.2 26.8 13.3 40 8.8 S 13 19 7 10 1018.3 - 0.0
03/12:00pm 28.4 26.4 13.8 40 8.7 ESE 17 28 9 15 1018.8 1018.7 0.0
03/11:30am 27.4 25.7 13.7 43 8.1 E 15 28 8 15 1019.2 - 0.0
03/11:00am 26.8 23.8 13.6 44 7.8 E 22 30 12 16 1019.7 - 0.0
03/10:30am 24.9 21.8 13.4 48 6.7 E 22 30 12 16 1019.9 - 0.0
03/10:00am 23.7 20.9 13.1 51 6.1 ESE 20 30 11 16 1020.1 - 0.0
03/09:30am 22.9 19.9 13.6 55 5.4 E 22 30 12 16 1020.3 - 0.0
03/09:00am 23.0 18.7 13.3 54 5.6 E 28 33 15 18 1020.4 1020.3 0.0
03/08:30am 21.9 17.6 13.2 57 5.0 E 28 41 15 22 1020.2 - 0.0
03/08:00am 20.8 17.6 13.1 61 4.4 E 22 32 12 17 1020.2 - 0.0
03/07:30am 20.1 17.8 13.0 63 4.0 SE 17 26 9 14 1020.0 - 0.0
03/07:00am 19.0 15.6 12.6 66 3.6 ESE 22 32 12 17 1019.8 - 0.0
03/06:30am 17.9 15.1 12.5 70 3.0 ESE 19 30 10 16 1019.7 - 0.0
03/06:00am 17.5 15.8 12.6 73 2.7 SE 13 19 7 10 1019.5 1019.4 0.0
03/05:30am 17.3 14.9 12.6 74 2.6 SE 17 24 9 13 1019.4 - 0.0
03/05:00am 17.7 15.6 12.5 71 2.9 ESE 15 26 8 14 1019.3 - 0.0
03/04:30am 17.8 15.6 12.2 70 3.1 ESE 15 22 8 12 1019.2 - 0.0
03/04:00am 17.8 15.6 12.2 70 3.1 ESE 15 28 8 15 1019.0 - 0.0
03/03:30am 17.8 15.7 12.4 70 3.0 ESE 15 26 8 14 1018.8 - 0.0
03/03:00am 18.1 15.6 12.3 69 3.2 ESE 17 28 9 15 1018.6 1018.5 0.0
03/02:30am 18.2 16.1 12.4 69 3.2 ESE 15 20 8 11 1018.6 - 0.0
03/02:00am 18.4 15.6 12.5 68 3.3 ESE 19 30 10 16 1018.4 - 0.0
03/01:30am 18.7 16.2 12.4 67 3.5 ESE 17 28 9 15 1018.5 - 0.0
03/01:00am 18.7 15.3 12.4 67 3.5 ESE 22 37 12 20 1018.5 - 0.0
03/12:30am 19.1 15.6 12.3 64 3.8 ESE 22 33 12 18 1018.5 - 0.0
03/12:00am 19.6 17.1 12.4 63 4.0 ESE 17 26 9 14 1018.4 1018.3 0.0
 
Date/Time
WST
Temp
°C
App
Temp
°C
Dew
Point
Rel
Hum
%
Delta-T
°C
Wind Press
QNH
hPa
Press
MSL
hPa
Rain
since 9 am
mm
Dir
 
Spd
km/h
Gust
km/h
Spd
kts
Gust
kts
02/11:30pm 19.8 16.8 12.5 62 4.1 E 20 32 11 17 1018.5 - 0.0
02/11:00pm 20.2 15.6 12.3 60 4.4 ESE 28 43 15 23 1018.2 - 0.0
02/10:30pm 20.7 16.9 12.3 58 4.7 ESE 24 32 13 17 1017.9 - 0.0
02/10:00pm 21.1 17.3 12.4 57 4.9 SE 24 35 13 19 1018.0 - 0.0
02/09:30pm 21.1 18.6 12.2 56 5.0 SSE 17 26 9 14 1017.6 - 0.0
02/09:00pm 21.4 18.3 12.1 55 5.2 SE 20 28 11 15 1017.3 1017.2 0.0
02/08:30pm 21.7 19.2 12.3 55 5.3 ESE 17 28 9 15 1016.9 - 0.0
02/08:00pm 22.2 19.3 12.3 53 5.6 SE 19 28 10 15 1016.5 - 0.0
02/07:30pm 22.6 18.8 12.4 52 5.8 ESE 24 32 13 17 1016.0 - 0.0
02/07:00pm 23.1 18.1 12.2 50 6.2 ESE 30 37 16 20 1015.3 - 0.0
02/06:30pm 24.1 18.9 11.5 45 7.1 ESE 30 39 16 21 1014.7 - 0.0
02/06:00pm 24.8 19.6 11.5 43 7.5 ESE 30 39 16 21 1014.3 1014.2 0.0
02/05:30pm 25.7 20.1 11.4 40 8.1 SE 32 41 17 22 1014.2 - 0.0
02/05:00pm 26.3 20.4 11.3 39 8.5 ESE 33 46 18 25 1013.9 - 0.0
02/04:30pm 26.7 21.0 11.2 38 8.8 SE 32 39 17 21 1013.8 - 0.0
02/04:00pm 27.3 21.4 11.1 36 9.2 ESE 33 41 18 22 1013.9 - 0.0
02/03:30pm 26.7 21.4 11.4 38 8.7 SE 30 37 16 20 1013.8 - 0.0
02/03:00pm 27.4 22.5 11.3 36 9.2 ESE 28 39 15 21 1013.8 1013.7 0.0
02/02:30pm 27.2 22.8 11.7 38 8.9 SE 26 37 14 20 1014.0 - 0.0
02/02:00pm 27.0 23.1 10.9 36 9.1 ESE 22 37 12 20 1014.3 - 0.0
02/01:30pm 27.2 22.3 11.2 36 9.1 ESE 28 37 15 20 1014.2 - 0.0
02/01:00pm 26.8 20.9 11.1 37 8.9 ESE 33 44 18 24 1014.2 - 0.0
02/12:43pm 26.7 21.8 11.2 38 8.8 E 28 41 15 22 1014.4 - 0.0
02/12:30pm 26.4 20.6 11.5 39 8.5 E 33 41 18 22 1014.4 - 0.0
02/12:24pm 26.0 21.0 11.1 39 8.4 ESE 28 54 15 29 1014.4 - 0.0
02/12:00pm 26.1 20.4 11.3 39 8.4 SE 32 41 17 22 1014.6 1014.5 0.0
02/11:30am 25.5 20.2 11.4 41 8.0 ESE 30 43 16 23 1014.8 - 0.0
02/11:00am 24.0 18.8 11.6 45 7.0 SE 30 37 16 20 1014.9 - 0.0
02/10:43am 23.7 18.9 11.6 46 6.8 SE 28 41 15 22 1015.0 - -
02/10:30am 23.9 17.8 11.9 47 6.8 ESE 35 43 19 23 1015.0 - 0.0
02/10:00am 22.9 16.8 11.9 50 6.2 ESE 35 43 19 23 1015.0 - 0.0
02/09:30am 22.6 18.0 12.2 51 5.9 SE 28 41 15 22 1014.9 - 0.0
02/09:00am 21.6 17.7 12.2 55 5.3 SE 24 32 13 17 1014.8 1014.7 0.0
02/08:30am 21.1 17.6 12.2 56 5.0 SE 22 33 12 18 1014.6 - 0.0
02/08:00am 20.5 15.5 12.1 58 4.7 SE 30 41 16 22 1014.2 - 0.0
02/07:30am 20.0 15.8 12.3 61 4.3 SE 26 37 14 20 1014.1 - 0.0
02/07:00am 19.8 15.2 12.3 62 4.2 SE 28 39 15 21 1013.9 - 0.0
02/06:30am 19.8 16.9 12.3 62 4.2 SSE 19 30 10 16 1013.7 - 0.0
02/06:00am 19.7 17.2 12.4 62 4.1 SE 17 30 9 16 1013.5 1013.4 0.0
02/05:30am 19.8 17.2 12.1 61 4.3 SSE 17 28 9 15 1013.0 - 0.0
02/05:00am 19.8 16.3 12.3 62 4.2 SE 22 32 12 17 1012.9 - 0.0
02/04:30am 19.9 16.9 12.6 63 4.1 SE 20 37 11 20 1012.4 - 0.0
02/04:00am 19.9 16.2 12.6 63 4.1 SE 24 32 13 17 1012.0 - 0.0
02/03:30am 19.9 17.2 13.0 64 3.9 SSE 19 39 10 21 1011.7 - 0.0
02/03:00am 20.1 17.3 13.1 64 4.0 SE 20 32 11 17 1011.5 1011.4 0.0
02/02:30am 20.2 16.3 13.2 64 4.0 ESE 26 44 14 24 1011.5 - 0.0
02/02:00am 20.6 17.9 13.5 63 4.1 ESE 20 33 11 18 1011.5 - 0.0
02/01:30am 21.1 17.6 13.4 61 4.4 SE 24 39 13 21 1011.5 - 0.0
02/01:00am 21.5 17.2 13.1 58 4.8 ESE 28 43 15 23 1011.5 - 0.0
02/12:30am 22.1 19.4 12.8 55 5.3 SE 19 28 10 15 1011.5 - 0.0
02/12:00am 22.4 19.7 12.8 54 5.5 SE 19 30 10 16 1011.5 1011.4 0.0
 
Date/Time
WST
Temp
°C
App
Temp
°C
Dew
Point
Rel
Hum
%
Delta-T
°C
Wind Press
QNH
hPa
Press
MSL
hPa
Rain
since 9 am
mm
Dir
 
Spd
km/h
Gust
km/h
Spd
kts
Gust
kts
01/11:30pm 22.9 18.9 13.0 53 5.7 ESE 26 33 14 18 1011.4 - 0.0

Other Formats:

Comma delimited format used in spreadsheet applications
http://www.bom.gov.au/fwo/IDW60801/IDW60801.94610.axf

JavaScript Object Notation format (JSON) in row-major order
http://www.bom.gov.au/fwo/IDW60801/IDW60801.94610.json